createdAt,value
2023-04-02T00:01:52.435Z,8.94
2023-04-02T00:04:23.504Z,8.94
2023-04-02T00:06:58.282Z,8.94
2023-04-02T00:09:31.352Z,8.92
2023-04-02T00:12:00.882Z,8.93
2023-04-02T00:14:30.456Z,8.91
2023-04-02T00:16:59.924Z,8.92
2023-04-02T00:19:49.346Z,8.94
2023-04-02T00:22:20.916Z,8.96
2023-04-02T00:24:53.251Z,8.95
2023-04-02T00:27:21.787Z,8.94
2023-04-02T00:29:50.981Z,8.96
2023-04-02T00:32:29.653Z,8.95
2023-04-02T00:34:58.124Z,8.93
2023-04-02T00:37:28.374Z,8.95
2023-04-02T00:39:59.046Z,8.95
2023-04-02T00:42:27.487Z,8.97
2023-04-02T00:44:56.166Z,8.99
2023-04-02T00:47:27.087Z,8.97
2023-04-02T00:49:58.928Z,8.98
2023-04-02T00:52:28.143Z,9.00
2023-04-02T00:55:20.237Z,9.01
2023-04-02T00:57:49.663Z,9.01
2023-04-02T01:00:22.737Z,9.00
2023-04-02T01:03:11.444Z,9.00
2023-04-02T01:05:39.518Z,9.01
2023-04-02T01:08:22.762Z,9.00
2023-04-02T01:11:09.402Z,8.99
2023-04-02T01:13:41.013Z,9.02
2023-04-02T01:16:14.816Z,9.04
2023-04-02T01:18:58.556Z,9.05
2023-04-02T01:21:30.949Z,9.07
2023-04-02T01:24:04.595Z,9.06
2023-04-02T01:26:51.582Z,9.06
2023-04-02T01:29:21.150Z,9.06
2023-04-02T01:31:49.714Z,9.10
2023-04-02T01:34:20.294Z,9.13
2023-04-02T01:37:06.480Z,9.14
2023-04-02T01:39:34.559Z,9.19
2023-04-02T01:42:02.087Z,9.22
2023-04-02T01:44:39.975Z,9.21
2023-04-02T01:47:10.693Z,9.20
2023-04-02T01:49:40.647Z,9.21
2023-04-02T01:52:09.385Z,9.24
2023-04-02T01:54:38.023Z,9.25
2023-04-02T01:57:06.215Z,9.26
2023-04-02T01:59:33.934Z,9.27
2023-04-02T02:02:10.231Z,9.26
2023-04-02T02:04:39.801Z,9.23
2023-04-02T02:07:14.901Z,9.24
2023-04-02T02:09:44.594Z,9.21
2023-04-02T02:12:14.019Z,9.20
2023-04-02T02:14:48.466Z,9.18
2023-04-02T02:17:17.790Z,9.15
2023-04-02T02:19:52.484Z,9.13
2023-04-02T02:22:28.696Z,9.08
2023-04-02T02:24:57.996Z,9.05
2023-04-02T02:27:40.974Z,9.02
2023-04-02T02:30:16.940Z,9.00
2023-04-02T02:32:54.244Z,9.00
2023-04-02T02:35:24.495Z,9.00
2023-04-02T02:37:57.928Z,9.02
2023-04-02T02:40:37.153Z,8.99
2023-04-02T02:43:06.781Z,8.96
2023-04-02T02:45:38.118Z,8.95
2023-04-02T02:48:10.667Z,8.94
2023-04-02T02:50:38.718Z,8.96
2023-04-02T02:53:16.145Z,8.99
2023-04-02T02:55:43.924Z,9.00
2023-04-02T02:58:23.826Z,9.00
2023-04-02T03:01:05.008Z,9.00
2023-04-02T03:03:35.303Z,9.01
2023-04-02T03:06:07.553Z,9.02
2023-04-02T03:09:01.024Z,9.04
2023-04-02T03:11:46.495Z,9.04
2023-04-02T03:14:39.454Z,9.00
2023-04-02T03:17:13.469Z,9.00
2023-04-02T03:19:41.665Z,8.98
2023-04-02T03:22:14.792Z,8.99
2023-04-02T03:24:53.619Z,8.98
2023-04-02T03:27:24.270Z,8.99
2023-04-02T03:30:04.168Z,8.99
2023-04-02T03:32:38.303Z,9.00
2023-04-02T03:35:12.435Z,8.99
2023-04-02T03:37:46.208Z,9.01
2023-04-02T03:40:25.063Z,9.05
2023-04-02T03:43:13.148Z,9.08
2023-04-02T03:45:42.224Z,9.15
2023-04-02T03:48:18.594Z,9.24
2023-04-02T03:50:46.918Z,9.29
2023-04-02T03:53:14.528Z,9.34
2023-04-02T03:55:43.264Z,9.37
2023-04-02T03:58:13.748Z,9.42
2023-04-02T04:00:56.720Z,9.45
2023-04-02T04:03:37.638Z,9.52
2023-04-02T04:06:11.841Z,9.59
2023-04-02T04:08:51.920Z,9.63
2023-04-02T04:11:22.952Z,9.67
2023-04-02T04:13:56.447Z,9.79
2023-04-02T04:16:31.869Z,9.84
2023-04-02T04:19:11.033Z,9.78
2023-04-02T04:21:39.773Z,9.75
2023-04-02T04:24:20.493Z,9.73
2023-04-02T04:26:56.519Z,9.69
2023-04-02T04:29:24.648Z,9.66
2023-04-02T04:31:56.746Z,9.65
2023-04-02T04:34:37.218Z,9.65
2023-04-02T04:37:07.956Z,9.65
2023-04-02T04:39:44.114Z,9.63
2023-04-02T04:42:18.373Z,9.59
2023-04-02T04:44:55.748Z,9.57
2023-04-02T04:47:31.054Z,9.53
2023-04-02T04:50:14.119Z,9.50
2023-04-02T04:52:43.168Z,9.52
2023-04-02T04:55:38.329Z,9.52
2023-04-02T04:58:15.151Z,9.57
2023-04-02T05:00:50.134Z,9.58
2023-04-02T05:03:24.851Z,9.66
2023-04-02T05:05:52.934Z,9.71
2023-04-02T05:08:27.510Z,9.82
2023-04-02T05:11:11.784Z,9.91
2023-04-02T05:14:18.255Z,9.90
2023-04-02T05:16:51.264Z,9.87
2023-04-02T05:19:26.236Z,9.90
2023-04-02T05:22:26.405Z,9.90
2023-04-02T05:25:12.808Z,9.89
2023-04-02T05:27:59.501Z,9.89
2023-04-02T05:30:27.822Z,9.87
2023-04-02T05:33:08.029Z,9.84
2023-04-02T05:35:38.047Z,9.80
2023-04-02T05:38:06.690Z,9.75
2023-04-02T05:40:38.529Z,9.70
2023-04-02T05:43:09.368Z,9.68
2023-04-02T05:45:42.878Z,9.67
2023-04-02T05:48:18.818Z,9.71
2023-04-02T05:50:51.851Z,9.77
2023-04-02T05:53:28.428Z,9.87
2023-04-02T05:55:57.405Z,9.87
2023-04-02T05:58:37.318Z,9.87
2023-04-02T06:01:41.959Z,9.94
2023-04-02T06:04:47.507Z,10.04
2023-04-02T06:07:18.256Z,10.15
2023-04-02T06:10:12.194Z,10.26
2023-04-02T06:12:53.868Z,10.41
2023-04-02T06:15:22.966Z,10.48
2023-04-02T06:18:07.282Z,10.49
2023-04-02T06:20:36.075Z,10.43
2023-04-02T06:23:03.323Z,10.51
2023-04-02T06:25:35.499Z,10.78
2023-04-02T06:28:05.386Z,11.06
2023-04-02T06:30:34.941Z,11.35
2023-04-02T06:33:04.829Z,11.73
2023-04-02T06:35:36.112Z,12.04
2023-04-02T06:38:06.520Z,12.24
2023-04-02T06:40:40.675Z,12.40
2023-04-02T06:43:33.494Z,12.50
2023-04-02T06:46:32.847Z,12.69
2023-04-02T06:49:15.212Z,12.92
2023-04-02T06:51:45.071Z,13.16
2023-04-02T06:54:15.704Z,13.28
2023-04-02T06:56:46.426Z,13.41
2023-04-02T06:59:19.155Z,13.29
2023-04-02T07:01:53.424Z,13.18
2023-04-02T07:04:21.892Z,12.88
2023-04-02T07:06:52.067Z,12.64
2023-04-02T07:09:22.795Z,12.55
2023-04-02T07:11:54.833Z,12.44
2023-04-02T07:14:22.288Z,12.31
2023-04-02T07:16:49.456Z,12.24
2023-04-02T07:19:19.210Z,12.20
2023-04-02T07:21:47.837Z,12.25
2023-04-02T07:24:16.177Z,12.19
2023-04-02T07:26:43.872Z,12.09
2023-04-02T07:29:14.406Z,11.99
2023-04-02T07:31:42.172Z,11.92
2023-04-02T07:34:09.777Z,11.83
2023-04-02T07:36:37.237Z,11.74
2023-04-02T07:39:04.592Z,11.72
2023-04-02T07:41:31.790Z,11.69
2023-04-02T07:43:59.218Z,11.70
2023-04-02T07:46:26.761Z,11.66
2023-04-02T07:48:54.337Z,11.73
2023-04-02T07:51:23.493Z,11.81
2023-04-02T07:53:56.403Z,11.90
2023-04-02T07:56:24.893Z,11.94
2023-04-02T07:58:52.441Z,11.91
2023-04-02T08:01:21.493Z,11.86
2023-04-02T08:03:50.405Z,11.75
2023-04-02T08:06:18.581Z,11.63
2023-04-02T08:08:46.095Z,11.60
2023-04-02T08:11:13.350Z,11.65
2023-04-02T08:13:40.868Z,11.68
2023-04-02T08:16:08.496Z,11.74
2023-04-02T08:18:36.309Z,11.70
2023-04-02T08:21:06.638Z,11.70
2023-04-02T08:23:35.311Z,11.73
2023-04-02T08:26:03.301Z,11.70
2023-04-02T08:28:30.746Z,11.65
2023-04-02T08:30:58.327Z,11.59
2023-04-02T08:33:26.346Z,11.56
2023-04-02T08:35:53.976Z,11.53
2023-04-02T08:38:22.084Z,11.52
2023-04-02T08:40:51.158Z,11.60
2023-04-02T08:43:24.586Z,11.62
2023-04-02T08:45:52.256Z,11.54
2023-04-02T08:48:20.453Z,11.47
2023-04-02T08:50:48.006Z,11.39
2023-04-02T08:53:24.849Z,11.34
2023-04-02T08:55:52.730Z,11.35
2023-04-02T08:58:32.421Z,11.42
2023-04-02T09:01:02.409Z,11.50
2023-04-02T09:03:30.004Z,11.35
2023-04-02T09:05:58.837Z,11.29
2023-04-02T09:08:27.184Z,11.37
2023-04-02T09:11:09.927Z,11.49
2023-04-02T09:13:41.225Z,11.63
2023-04-02T09:16:12.280Z,11.72
2023-04-02T09:18:40.168Z,11.84
2023-04-02T09:21:28.656Z,11.87
2023-04-02T09:23:56.369Z,11.92
2023-04-02T09:26:25.153Z,11.99
2023-04-02T09:28:53.947Z,12.11
2023-04-02T09:31:25.074Z,12.13
2023-04-02T09:33:54.893Z,12.06
2023-04-02T09:36:28.610Z,11.98
2023-04-02T09:39:01.585Z,12.01
2023-04-02T09:41:30.137Z,12.05
2023-04-02T09:44:13.879Z,12.09
2023-04-02T09:46:53.972Z,12.21
2023-04-02T09:49:23.111Z,12.19
2023-04-02T09:52:13.869Z,12.13
2023-04-02T09:54:44.449Z,12.07
2023-04-02T09:57:24.844Z,12.03
2023-04-02T10:00:14.611Z,12.16
2023-04-02T10:03:08.930Z,12.36
2023-04-02T10:05:40.909Z,12.50
2023-04-02T10:08:15.442Z,12.62
2023-04-02T10:10:45.186Z,12.72
2023-04-02T10:13:32.800Z,12.77
2023-04-02T10:16:00.573Z,12.99
2023-04-02T10:18:28.474Z,13.21
2023-04-02T10:20:57.633Z,13.42
2023-04-02T10:23:27.395Z,13.64
2023-04-02T10:26:23.502Z,13.78
2023-04-02T10:29:00.587Z,13.94
2023-04-02T10:31:33.596Z,14.13
2023-04-02T10:34:03.895Z,14.29
2023-04-02T10:36:34.346Z,14.45
2023-04-02T10:39:01.714Z,14.73
2023-04-02T10:41:43.080Z,14.95
2023-04-02T10:44:19.626Z,15.02
2023-04-02T10:46:48.373Z,15.24
2023-04-02T10:49:22.179Z,15.50
2023-04-02T10:51:53.533Z,15.77
2023-04-02T10:54:39.496Z,15.89
2023-04-02T10:57:10.269Z,16.14
2023-04-02T10:59:39.965Z,16.31
2023-04-02T11:02:18.911Z,16.42
2023-04-02T11:04:47.241Z,16.23
2023-04-02T11:07:17.647Z,16.11
2023-04-02T11:09:48.112Z,16.09
2023-04-02T11:12:41.775Z,16.24
2023-04-02T11:15:19.887Z,16.55
2023-04-02T11:17:47.476Z,16.81
2023-04-02T11:20:35.532Z,16.90
2023-04-02T11:23:09.989Z,16.96
2023-04-02T11:25:37.505Z,16.62
2023-04-02T11:28:20.320Z,16.18
2023-04-02T11:30:48.340Z,16.05
2023-04-02T11:33:43.118Z,15.87
2023-04-02T11:36:30.401Z,15.63
2023-04-02T11:39:04.568Z,15.54
2023-04-02T11:41:53.710Z,15.54
2023-04-02T11:44:25.180Z,15.19
2023-04-02T11:46:52.592Z,15.01
2023-04-02T11:49:39.950Z,14.85
2023-04-02T11:52:20.828Z,14.71
2023-04-02T11:54:56.033Z,14.69
2023-04-02T11:57:37.725Z,14.69
2023-04-02T12:00:08.091Z,14.49
2023-04-02T12:02:45.856Z,14.44
2023-04-02T12:05:26.434Z,14.45
2023-04-02T12:07:56.844Z,14.41
2023-04-02T12:10:28.196Z,14.41
2023-04-02T12:12:55.534Z,14.36
2023-04-02T12:15:32.722Z,14.27
2023-04-02T12:18:21.374Z,14.25
2023-04-02T12:20:53.065Z,14.31
2023-04-02T12:23:22.547Z,14.43
2023-04-02T12:25:55.622Z,14.70
2023-04-02T12:28:29.431Z,14.85
2023-04-02T12:31:05.073Z,14.94
2023-04-02T12:33:37.144Z,15.15
2023-04-02T12:36:07.536Z,15.29
2023-04-02T12:38:39.680Z,15.44
2023-04-02T12:41:18.677Z,15.62
2023-04-02T12:43:46.565Z,15.84
2023-04-02T12:46:14.787Z,15.95
2023-04-02T12:48:42.591Z,16.03
2023-04-02T12:51:10.748Z,16.12
2023-04-02T12:53:40.201Z,16.02
2023-04-02T12:56:10.757Z,15.92
2023-04-02T12:58:40.430Z,15.88
2023-04-02T13:01:15.834Z,15.87
2023-04-02T13:03:44.222Z,15.69
2023-04-02T13:06:23.387Z,15.48
2023-04-02T13:08:51.373Z,15.44
2023-04-02T13:11:18.668Z,15.34
2023-04-02T13:13:47.171Z,15.20
2023-04-02T13:16:14.973Z,15.12
2023-04-02T13:18:43.405Z,15.18
2023-04-02T13:21:16.983Z,15.18
2023-04-02T13:23:44.678Z,14.85
2023-04-02T13:26:17.650Z,14.58
2023-04-02T13:29:18.028Z,14.37
2023-04-02T13:31:45.489Z,14.22
2023-04-02T13:34:12.858Z,14.07
2023-04-02T13:36:40.560Z,13.98
2023-04-02T13:39:07.860Z,13.90
2023-04-02T13:41:39.397Z,13.78
2023-04-02T13:44:07.150Z,13.74
2023-04-02T13:46:34.860Z,13.77
2023-04-02T13:49:02.620Z,13.80
2023-04-02T13:51:32.867Z,13.89
2023-04-02T13:54:00.300Z,14.00
2023-04-02T13:56:27.970Z,14.08
2023-04-02T13:58:55.320Z,14.16
2023-04-02T14:01:24.456Z,14.18
2023-04-02T14:03:52.452Z,14.16
2023-04-02T14:06:41.217Z,14.15
2023-04-02T14:09:27.410Z,14.08
2023-04-02T14:11:54.598Z,14.04
2023-04-02T14:14:28.094Z,14.01
2023-04-02T14:16:56.432Z,14.01
2023-04-02T14:19:46.468Z,13.94
2023-04-02T14:22:16.376Z,13.81
2023-04-02T14:24:49.541Z,13.77
2023-04-02T14:27:28.986Z,13.76
2023-04-02T14:30:02.058Z,13.69
2023-04-02T14:32:44.295Z,13.65
2023-04-02T14:35:18.436Z,13.66
2023-04-02T14:37:52.834Z,13.69
2023-04-02T14:40:38.509Z,13.73
2023-04-02T14:43:10.633Z,13.71
2023-04-02T14:45:37.996Z,13.68
2023-04-02T14:48:17.409Z,13.66
2023-04-02T14:50:44.895Z,13.63
2023-04-02T14:53:21.504Z,13.59
2023-04-02T14:55:49.867Z,13.54
2023-04-02T14:58:22.088Z,13.54
2023-04-02T15:00:58.355Z,13.56
2023-04-02T15:03:29.064Z,13.54
2023-04-02T15:05:56.629Z,13.48
2023-04-02T15:08:33.000Z,13.46
2023-04-02T15:11:08.279Z,13.42
2023-04-02T15:13:36.113Z,13.36
2023-04-02T15:16:23.723Z,13.34
2023-04-02T15:18:52.366Z,13.30
2023-04-02T15:21:29.921Z,13.26
2023-04-02T15:24:33.154Z,13.19
2023-04-02T15:27:24.537Z,13.11
2023-04-02T15:29:59.392Z,13.00
2023-04-02T15:32:34.072Z,12.92
2023-04-02T15:35:20.450Z,12.86
2023-04-02T15:37:58.135Z,12.81
2023-04-02T15:40:44.137Z,12.77
2023-04-02T15:43:19.072Z,12.76
2023-04-02T15:45:46.575Z,12.71
2023-04-02T15:48:33.139Z,12.65
2023-04-02T15:51:03.859Z,12.61
2023-04-02T15:53:31.268Z,12.58
2023-04-02T15:55:58.558Z,12.54
2023-04-02T15:58:44.818Z,12.50
2023-04-02T16:01:12.823Z,12.44
2023-04-02T16:04:01.403Z,12.41
2023-04-02T16:06:32.512Z,12.38
2023-04-02T16:09:09.235Z,12.36
2023-04-02T16:11:37.100Z,12.35
2023-04-02T16:14:10.292Z,12.35
2023-04-02T16:16:40.289Z,12.34
2023-04-02T16:19:26.308Z,12.32
2023-04-02T16:22:01.737Z,12.32
2023-04-02T16:24:29.237Z,12.32
2023-04-02T16:26:56.969Z,12.30
2023-04-02T16:29:27.388Z,12.28
2023-04-02T16:32:00.956Z,12.27
2023-04-02T16:34:39.467Z,12.25
2023-04-02T16:37:09.928Z,12.25
2023-04-02T16:39:40.357Z,12.22
2023-04-02T16:42:26.485Z,12.20
2023-04-02T16:45:09.471Z,12.19
2023-04-02T16:47:40.352Z,12.19
2023-04-02T16:50:07.739Z,12.15
2023-04-02T16:52:34.883Z,12.15
2023-04-02T16:55:11.814Z,12.14
2023-04-02T16:57:58.781Z,12.14
2023-04-02T17:00:35.010Z,12.15
2023-04-02T17:03:11.886Z,12.17
2023-04-02T17:05:56.659Z,12.19
2023-04-02T17:08:26.060Z,12.18
2023-04-02T17:11:00.810Z,12.18
2023-04-02T17:13:36.262Z,12.17
2023-04-02T17:16:06.646Z,12.15
2023-04-02T17:18:34.284Z,12.14
2023-04-02T17:21:06.750Z,12.13
2023-04-02T17:23:55.724Z,12.11
2023-04-02T17:26:34.806Z,12.07
2023-04-02T17:29:06.881Z,12.05
2023-04-02T17:31:35.533Z,12.01
2023-04-02T17:34:23.988Z,11.99
2023-04-02T17:37:10.180Z,11.97
2023-04-02T17:39:57.654Z,11.98
2023-04-02T17:42:33.527Z,11.96
2023-04-02T17:45:13.780Z,11.92
2023-04-02T17:47:46.648Z,11.90
2023-04-02T17:50:35.021Z,11.89
2023-04-02T17:53:11.690Z,11.87
2023-04-02T17:55:43.106Z,11.85
2023-04-02T17:58:22.695Z,11.85
2023-04-02T18:01:08.800Z,11.84
2023-04-02T18:03:58.316Z,11.84
2023-04-02T18:06:31.310Z,11.84
2023-04-02T18:09:06.813Z,11.84
2023-04-02T18:11:53.094Z,11.84
2023-04-02T18:14:39.856Z,11.84
2023-04-02T18:17:26.273Z,11.83
2023-04-02T18:20:17.211Z,11.80
2023-04-02T18:22:50.474Z,11.79
2023-04-02T18:25:32.239Z,11.77
2023-04-02T18:28:30.520Z,11.77
2023-04-02T18:31:24.994Z,11.78
2023-04-02T18:33:55.467Z,11.79
2023-04-02T18:36:23.805Z,11.81
2023-04-02T18:38:59.846Z,11.81
2023-04-02T18:41:44.134Z,11.80
2023-04-02T18:44:30.633Z,11.81
2023-04-02T18:47:08.201Z,11.82
2023-04-02T18:49:39.112Z,11.81
2023-04-02T18:52:17.689Z,11.80
2023-04-02T18:54:46.874Z,11.79
2023-04-02T18:57:26.548Z,11.78
2023-04-02T18:59:57.131Z,11.77
2023-04-02T19:02:27.912Z,11.73
2023-04-02T19:05:00.979Z,11.73
2023-04-02T19:07:43.817Z,11.73
2023-04-02T19:10:27.606Z,11.75
2023-04-02T19:12:55.126Z,11.74
2023-04-02T19:15:26.700Z,11.74
2023-04-02T19:18:20.330Z,11.73
2023-04-02T19:20:55.965Z,11.75
2023-04-02T19:23:32.656Z,11.76
2023-04-02T19:26:08.517Z,11.72
2023-04-02T19:28:52.913Z,11.70
2023-04-02T19:31:29.777Z,11.70
2023-04-02T19:33:57.142Z,11.71
2023-04-02T19:36:33.856Z,11.72
2023-04-02T19:39:21.172Z,11.69
2023-04-02T19:41:54.020Z,11.65
2023-04-02T19:44:21.963Z,11.62
2023-04-02T19:46:53.784Z,11.62
2023-04-02T19:49:29.206Z,11.62
2023-04-02T19:51:57.100Z,11.63
2023-04-02T19:54:24.430Z,11.62
2023-04-02T19:56:51.760Z,11.62
2023-04-02T19:59:19.264Z,11.61
2023-04-02T20:01:47.226Z,11.62
2023-04-02T20:04:15.061Z,11.64
2023-04-02T20:06:42.768Z,11.62
2023-04-02T20:09:10.420Z,11.62
2023-04-02T20:11:38.495Z,11.63
2023-04-02T20:14:06.480Z,11.63
2023-04-02T20:16:34.509Z,11.64
2023-04-02T20:19:01.912Z,11.67
2023-04-02T20:21:34.759Z,11.66
2023-04-02T20:24:02.195Z,11.64
2023-04-02T20:26:30.287Z,11.62
2023-04-02T20:28:58.103Z,11.60
2023-04-02T20:31:25.689Z,11.58
2023-04-02T20:33:57.843Z,11.60
2023-04-02T20:36:25.987Z,11.56
2023-04-02T20:38:53.600Z,11.55
2023-04-02T20:41:22.015Z,11.56
2023-04-02T20:43:50.113Z,11.58
2023-04-02T20:46:17.924Z,11.58
2023-04-02T20:48:46.753Z,11.56
2023-04-02T20:51:15.470Z,11.54
2023-04-02T20:53:46.864Z,11.54
2023-04-02T20:56:15.852Z,11.50
2023-04-02T20:58:43.581Z,11.49
2023-04-02T21:01:19.587Z,11.48
2023-04-02T21:03:47.650Z,11.44
2023-04-02T21:06:15.948Z,11.41
2023-04-02T21:08:43.468Z,11.38
2023-04-02T21:11:11.092Z,11.39
2023-04-02T21:13:38.740Z,11.35
2023-04-02T21:16:12.338Z,11.34
2023-04-02T21:18:40.562Z,11.32
2023-04-02T21:21:08.710Z,11.29
2023-04-02T21:23:36.120Z,11.29
2023-04-02T21:26:06.282Z,11.30
2023-04-02T21:28:35.126Z,11.31
2023-04-02T21:31:06.149Z,11.32
2023-04-02T21:33:38.628Z,11.32
2023-04-02T21:36:10.906Z,11.32
2023-04-02T21:38:41.834Z,11.30
2023-04-02T21:41:10.413Z,11.30
2023-04-02T21:43:38.848Z,11.30
2023-04-02T21:46:06.122Z,11.29
2023-04-02T21:48:33.739Z,11.26
2023-04-02T21:51:09.942Z,11.25
2023-04-02T21:53:37.956Z,11.24
2023-04-02T21:56:06.640Z,11.24
2023-04-02T21:58:33.983Z,11.24
2023-04-02T22:01:02.061Z,11.24
2023-04-02T22:03:32.087Z,11.24
2023-04-02T22:06:05.656Z,11.23
2023-04-02T22:08:34.236Z,11.21
2023-04-02T22:11:12.694Z,11.13
2023-04-02T22:13:41.162Z,11.02
2023-04-02T22:16:11.464Z,10.94
2023-04-02T22:18:39.398Z,10.89
2023-04-02T22:21:06.984Z,10.87
2023-04-02T22:23:35.053Z,10.83
2023-04-02T22:26:03.073Z,10.83
2023-04-02T22:28:30.751Z,10.83
2023-04-02T22:31:03.808Z,10.83
2023-04-02T22:33:32.681Z,10.83
2023-04-02T22:36:00.344Z,10.82
2023-04-02T22:38:28.216Z,10.80
2023-04-02T22:41:06.765Z,10.75
2023-04-02T22:43:35.171Z,10.71
2023-04-02T22:46:03.259Z,10.69
2023-04-02T22:48:30.842Z,10.65
2023-04-02T22:50:59.155Z,10.64
2023-04-02T22:53:26.882Z,10.62
2023-04-02T22:55:54.634Z,10.61
2023-04-02T22:58:22.769Z,10.57
2023-04-02T23:00:50.271Z,10.54
2023-04-02T23:03:17.818Z,10.49
2023-04-02T23:05:47.172Z,10.46
2023-04-02T23:08:14.553Z,10.43
2023-04-02T23:10:41.929Z,10.40
2023-04-02T23:13:09.580Z,10.38
2023-04-02T23:15:37.265Z,10.41
2023-04-02T23:18:05.001Z,10.44
2023-04-02T23:20:32.267Z,10.49
2023-04-02T23:22:59.516Z,10.54
2023-04-02T23:25:26.868Z,10.58
2023-04-02T23:27:54.486Z,10.60
2023-04-02T23:30:21.910Z,10.64
2023-04-02T23:32:49.424Z,10.65
2023-04-02T23:35:17.014Z,10.66
2023-04-02T23:37:44.598Z,10.67
2023-04-02T23:40:11.946Z,10.66
2023-04-02T23:42:39.637Z,10.68
2023-04-02T23:45:07.273Z,10.69
2023-04-02T23:47:34.979Z,10.69
2023-04-02T23:50:02.359Z,10.69
2023-04-02T23:52:30.430Z,10.69
2023-04-02T23:54:58.218Z,10.68
2023-04-02T23:57:25.927Z,10.68
2023-04-02T23:59:53.268Z,10.68
